Time;durP1;ratioP1;P1;durP2;ratioP2;P2;SDS_P1;SDS_P2;PMS_P1;PMS_P2;Temp;Humidity;BMP_temperature;BMP_pressure;BME280_temperature;BME280_humidity;BME280_pressure;Samples;Min_cycle;Max_cycle;Signal;HPM_P1;HPM_P2
2022/10/21 00:03:04;;;;;;;11.82;9.10;;;;;;;15.16;100.00;97462.75;18236208;32;20102;-61
2022/10/21 00:13:07;;;;;;;11.07;7.97;;;;;;;15.19;100.00;97449.31;18235397;32;20401;-62
2022/10/21 00:23:09;;;;;;;11.10;6.72;;;;;;;15.13;100.00;97436.91;18235338;32;20477;-61
2022/10/21 00:33:12;;;;;;;8.05;6.12;;;;;;;15.08;100.00;97440.53;18234877;32;20468;-62
2022/10/21 00:43:15;;;;;;;8.90;5.70;;;;;;;15.03;100.00;97431.69;18234786;32;20125;-61
2022/10/21 00:53:18;;;;;;;16.13;8.43;;;;;;;15.00;100.00;97419.47;18233760;32;20031;-61
2022/10/21 01:03:24;;;;;;;15.23;9.38;;;;;;;15.03;100.00;97427.06;18233163;32;20075;-61
2022/10/21 01:13:45;;;;;;;12.02;7.32;;;;;;;15.11;100.00;97422.00;18231813;32;20405;-61
2022/10/21 01:24:25;;;;;;;7.82;5.50;;;;;;;15.11;100.00;97422.78;18085743;32;20063;-62
2022/10/21 01:34:55;;;;;;;8.50;5.82;;;;;;;15.03;100.00;97426.22;18097426;32;20093;-61
2022/10/21 01:45:32;;;;;;;7.85;5.35;;;;;;;14.96;100.00;97409.50;18097422;32;20058;-62
2022/10/21 01:55:36;;;;;;;12.10;5.32;;;;;;;14.87;100.00;97407.50;18224464;32;20059;-61
2022/10/21 02:05:39;;;;;;;7.97;5.57;;;;;;;14.80;100.00;97396.22;18233201;32;20446;-61
2022/10/21 02:15:42;;;;;;;8.80;5.83;;;;;;;14.75;100.00;97399.06;18240771;32;20077;-61
2022/10/21 02:25:49;;;;;;;11.53;5.83;;;;;;;14.72;100.00;97386.06;18240678;32;20058;-61
2022/10/21 02:36:01;;;;;;;12.37;8.68;;;;;;;14.70;100.00;97386.37;18238897;32;20074;-61
2022/10/21 02:46:09;;;;;;;17.73;12.90;;;;;;;14.68;100.00;97396.75;18239840;32;20055;-61
2022/10/21 02:56:11;;;;;;;19.35;11.82;;;;;;;14.76;100.00;97408.84;18166679;32;20073;-61
2022/10/21 03:06:14;;;;;;;21.02;11.90;;;;;;;14.79;100.00;97391.91;18166840;32;20173;-61
2022/10/21 03:16:16;;;;;;;21.98;13.10;;;;;;;14.75;100.00;97409.94;18165925;32;20110;-60
2022/10/21 03:26:24;;;;;;;21.95;14.27;;;;;;;14.74;100.00;97397.44;18223075;32;20059;-61
2022/10/21 03:36:27;;;;;;;21.45;12.93;;;;;;;14.73;100.00;97384.94;18237066;32;20058;-61
2022/10/21 03:46:29;;;;;;;20.67;12.25;;;;;;;14.70;100.00;97410.03;18236705;32;20122;-61
2022/10/21 03:56:32;;;;;;;22.60;13.93;;;;;;;14.68;100.00;97398.66;18234668;32;20046;-61
2022/10/21 04:06:34;;;;;;;20.80;12.32;;;;;;;14.68;100.00;97394.00;18236071;32;20077;-61
2022/10/21 04:16:37;;;;;;;25.55;14.00;;;;;;;14.66;100.00;97336.38;18235320;32;20359;-61
2022/10/21 04:26:43;;;;;;;23.08;13.43;;;;;;;14.64;100.00;97344.03;18233331;32;20050;-61
2022/10/21 04:36:46;;;;;;;17.92;12.37;;;;;;;14.59;100.00;97346.81;18234778;32;20066;-61
2022/10/21 04:46:49;;;;;;;19.98;15.02;;;;;;;14.55;100.00;97311.28;18234568;32;20118;-61
2022/10/21 04:56:52;;;;;;;18.93;12.33;;;;;;;14.54;100.00;97320.53;18233106;32;20062;-63
2022/10/21 05:06:54;;;;;;;19.98;12.32;;;;;;;14.50;100.00;97311.37;18230504;32;20103;-63
2022/10/21 05:16:56;;;;;;;17.48;10.95;;;;;;;14.49;100.00;97285.28;18229038;32;20058;-63
2022/10/21 05:26:58;;;;;;;12.65;9.00;;;;;;;14.49;100.00;97334.25;18229595;32;20066;-63
2022/10/21 05:37:01;;;;;;;20.27;10.85;;;;;;;14.46;100.00;97299.50;18229111;32;20469;-63
2022/10/21 05:47:04;;;;;;;11.63;8.55;;;;;;;14.45;100.00;97242.69;18227960;32;20054;-63
2022/10/21 05:57:06;;;;;;;12.45;8.38;;;;;;;14.39;100.00;97272.69;18228483;32;20098;-63
2022/10/21 06:07:09;;;;;;;12.45;7.78;;;;;;;14.36;100.00;97272.50;18229570;32;20359;-63
2022/10/21 06:17:12;;;;;;;9.20;6.85;;;;;;;14.33;100.00;97278.56;18230136;32;20395;-63
2022/10/21 06:27:14;;;;;;;13.32;8.15;;;;;;;14.32;100.00;97279.66;18229937;32;20469;-63
2022/10/21 06:37:18;;;;;;;12.82;7.40;;;;;;;14.33;100.00;97260.31;18215466;32;20133;-63
2022/10/21 06:47:21;;;;;;;13.75;7.22;;;;;;;14.32;100.00;97244.28;18229149;32;20129;-63
2022/10/21 06:57:26;;;;;;;15.13;6.40;;;;;;;14.43;100.00;97244.88;18235672;32;20114;-63
2022/10/21 07:07:29;;;;;;;12.52;6.47;;;;;;;14.48;100.00;97324.47;18237443;32;20225;-63
2022/10/21 07:17:31;;;;;;;8.55;5.47;;;;;;;14.54;100.00;97453.06;18238270;32;20092;-63
2022/10/21 07:27:35;;;;;;;7.60;4.70;;;;;;;14.63;100.00;97436.84;18237795;32;20047;-64
2022/10/21 07:37:40;;;;;;;5.55;2.90;;;;;;;14.69;100.00;97479.16;18235908;32;20446;-63
2022/10/21 07:47:46;;;;;;;3.28;1.35;;;;;;;14.72;100.00;97493.00;18235802;32;20400;-63
2022/10/21 07:57:51;;;;;;;1.92;1.02;;;;;;;14.73;100.00;97508.22;18236091;32;20043;-63
2022/10/21 08:07:57;;;;;;;2.72;1.20;;;;;;;14.74;100.00;97488.06;18234451;32;20438;-63
2022/10/21 08:18:01;;;;;;;2.53;0.50;;;;;;;14.76;100.00;97490.50;18235924;32;20114;-63
2022/10/21 08:28:05;;;;;;;0.82;0.35;;;;;;;14.76;100.00;97487.75;18162819;32;20070;-61
2022/10/21 08:38:09;;;;;;;;;;;;;;;14.75;100.00;97499.75;18162758;32;20123;-61
2022/10/21 08:48:16;;;;;;;0.70;0.30;;;;;;;14.77;100.00;97508.41;18137794;32;19988;-61
2022/10/21 08:58:22;;;;;;;1.90;0.50;;;;;;;14.79;100.00;97533.44;18207654;32;20042;-61
2022/10/21 09:08:34;;;;;;;3.55;0.50;;;;;;;14.89;100.00;97518.81;18233568;32;20053;-61
2022/10/21 09:18:54;;;;;;;1.10;0.28;;;;;;;14.99;100.00;97534.13;18232368;32;20095;-61
2022/10/21 09:29:14;;;;;;;0.93;0.43;;;;;;;15.17;100.00;97535.97;18232748;32;20137;-61
2022/10/21 09:39:33;;;;;;;0.95;0.30;;;;;;;15.40;100.00;97530.56;18232096;32;20066;-61
2022/10/21 09:49:38;;;;;;;0.73;0.22;;;;;;;15.44;100.00;97552.59;18231662;32;20438;-61
2022/10/21 10:00:03;;;;;;;0.70;0.30;;;;;;;15.55;100.00;97541.19;18230813;32;20043;-61
2022/10/21 10:10:31;;;;;;;0.85;0.40;;;;;;;15.85;100.00;97549.00;18158342;32;20093;-61
2022/10/21 10:20:34;;;;;;;0.88;0.40;;;;;;;15.89;100.00;97548.06;18158278;32;20429;-61
2022/10/21 10:30:54;;;;;;;3.10;1.10;;;;;;;16.09;100.00;97565.09;18164760;32;20131;-61
2022/10/21 10:41:10;;;;;;;3.37;1.10;;;;;;;16.18;100.00;97593.22;18106710;32;20086;-61
2022/10/21 10:51:34;;;;;;;2.92;1.77;;;;;;;16.56;100.00;97606.50;18167980;32;20074;-61
2022/10/21 11:01:50;;;;;;;2.90;1.33;;;;;;;16.74;100.00;97598.44;18154917;32;20086;-61
2022/10/21 11:11:55;;;;;;;4.37;2.12;;;;;;;16.68;100.00;97588.78;18220189;32;20058;-61
2022/10/21 11:22:31;;;;;;;7.82;3.58;;;;;;;16.69;100.00;97585.72;18224843;32;20073;-61
2022/10/21 11:32:58;;;;;;;5.20;3.05;;;;;;;16.78;100.00;97583.03;18301175;32;20112;-61
2022/10/21 11:43:21;;;;;;;5.97;2.72;;;;;;;16.77;100.00;97562.31;18300974;32;20422;-61
2022/10/21 11:53:37;;;;;;;4.82;2.50;;;;;;;16.65;100.00;97583.91;18300610;32;20085;-60
2022/10/21 12:04:05;;;;;;;4.20;2.30;;;;;;;16.59;100.00;97580.50;18278783;32;20050;-61
2022/10/21 12:14:33;;;;;;;3.17;2.03;;;;;;;16.59;100.00;97589.53;18234578;32;20105;-61
2022/10/21 12:24:47;;;;;;;3.58;2.28;;;;;;;16.49;100.00;97599.87;18235657;32;20086;-61
2022/10/21 12:34:52;;;;;;;5.30;2.50;;;;;;;16.32;100.00;97595.91;18221359;32;20067;-61
2022/10/21 12:44:58;;;;;;;3.83;2.58;;;;;;;16.43;100.00;97564.53;18234878;32;20498;-61
2022/10/21 12:55:07;;;;;;;3.92;2.20;;;;;;;16.31;100.00;97563.47;18233424;32;20058;-61
2022/10/21 13:05:11;;;;;;;6.30;2.30;;;;;;;16.30;100.00;97537.31;18233509;32;20075;-61
2022/10/21 13:15:20;;;;;;;3.73;1.73;;;;;;;16.43;100.00;97566.44;18233262;32;20063;-60
2022/10/21 13:25:23;;;;;;;4.22;1.90;;;;;;;16.38;100.00;97580.22;18232829;32;20050;-60
2022/10/21 13:35:41;;;;;;;3.12;1.75;;;;;;;16.22;100.00;97558.75;18232681;32;20503;-63
2022/10/21 13:45:48;;;;;;;5.93;1.95;;;;;;;16.30;100.00;97529.94;18232115;32;20061;-63
2022/10/21 13:55:59;;;;;;;2.62;1.45;;;;;;;16.52;100.00;97529.09;18231218;32;20071;-63
2022/10/21 14:06:04;;;;;;;2.78;1.73;;;;;;;16.69;100.00;97514.75;18238280;32;20091;-63
2022/10/21 14:16:08;;;;;;;2.80;1.65;;;;;;;16.70;100.00;97497.22;18239853;32;20046;-64
2022/10/21 14:26:11;;;;;;;5.90;1.52;;;;;;;16.63;100.00;97507.81;18240807;32;20435;-61
2022/10/21 14:36:26;;;;;;;1.98;1.37;;;;;;;16.65;100.00;97521.12;18240366;32;20454;-61
2022/10/21 14:46:38;;;;;;;2.83;1.20;;;;;;;16.49;100.00;97510.63;18239829;32;20098;-61
2022/10/21 14:56:43;;;;;;;5.18;1.42;;;;;;;16.37;100.00;97510.38;18238996;32;20069;-61
2022/10/21 15:07:00;;;;;;;3.05;1.42;;;;;;;16.21;100.00;97496.31;18238938;32;20054;-61
2022/10/21 15:17:09;;;;;;;3.03;1.40;;;;;;;16.10;100.00;97487.59;18236819;32;20053;-61
2022/10/21 15:27:34;;;;;;;5.28;2.00;;;;;;;16.04;100.00;97492.34;18238040;32;20046;-61
2022/10/21 15:37:38;;;;;;;2.60;1.40;;;;;;;15.91;100.00;97483.13;18236457;32;20081;-61
2022/10/21 15:47:41;;;;;;;3.70;2.00;;;;;;;15.79;100.00;97479.31;18237232;32;20078;-61
2022/10/21 15:57:44;;;;;;;3.28;1.90;;;;;;;15.66;100.00;97470.87;18236460;32;20055;-61
2022/10/21 16:07:47;;;;;;;2.72;1.67;;;;;;;15.47;100.00;97460.16;18236228;32;20443;-61
2022/10/21 16:17:53;;;;;;;4.30;1.73;;;;;;;15.29;100.00;97439.31;18163584;32;20142;-61
2022/10/21 16:27:56;;;;;;;2.03;1.52;;;;;;;15.11;100.00;97435.59;18162305;32;20208;-61
2022/10/21 16:37:58;;;;;;;4.35;1.73;;;;;;;14.88;100.00;97420.00;18162561;32;20101;-61
2022/10/21 16:48:04;;;;;;;3.37;1.67;;;;;;;14.70;100.00;97431.81;18160556;32;20106;-61
2022/10/21 16:58:07;;;;;;;6.40;2.15;;;;;;;14.56;100.00;97407.28;18234167;32;20042;-61
2022/10/21 17:08:09;;;;;;;3.85;2.45;;;;;;;14.40;100.00;97404.06;18233484;32;20058;-61
2022/10/21 17:18:12;;;;;;;2.83;2.10;;;;;;;14.39;100.00;97397.03;18098270;32;20138;-61
2022/10/21 17:28:16;;;;;;;6.35;2.25;;;;;;;14.30;100.00;97382.50;18098061;32;20083;-61
2022/10/21 17:38:19;;;;;;;3.87;1.98;;;;;;;14.24;100.00;97382.59;18097563;32;20070;-61
2022/10/21 17:48:24;;;;;;;4.80;2.33;;;;;;;14.29;100.00;97394.50;18117262;32;20051;-61
2022/10/21 17:58:28;;;;;;;5.18;2.47;;;;;;;14.36;100.00;97381.28;18231225;32;20133;-61
2022/10/21 18:08:31;;;;;;;;;;;;;;;14.38;100.00;97368.22;18231030;32;20054;-61
2022/10/21 18:18:35;;;;;;;5.60;2.70;;;;;;;14.39;100.00;97359.75;18230573;32;19960;-61
2022/10/21 18:28:38;;;;;;;3.92;2.30;;;;;;;14.39;100.00;97397.03;18229117;32;20090;-61
2022/10/21 18:38:41;;;;;;;3.85;2.60;;;;;;;14.37;100.00;97402.75;18229591;32;20058;-61
2022/10/21 18:48:44;;;;;;;6.05;2.15;;;;;;;14.36;100.00;97400.31;18232442;32;20058;-61
2022/10/21 18:58:47;;;;;;;4.53;2.20;;;;;;;14.36;100.00;97364.97;18238873;32;20078;-61
2022/10/21 19:08:50;;;;;;;4.68;2.37;;;;;;;14.30;100.00;97379.78;18238670;32;20089;-61
2022/10/21 19:18:54;;;;;;;6.20;3.15;;;;;;;14.29;100.00;97378.97;18238463;32;20101;-61
2022/10/21 19:29:02;;;;;;;12.30;3.83;;;;;;;14.32;100.00;97375.66;18238013;32;20073;-63
2022/10/21 19:39:05;;;;;;;3.97;2.20;;;;;;;14.47;100.00;97480.66;18165541;32;20070;-64
2022/10/21 19:49:10;;;;;;;4.75;2.10;;;;;;;14.45;100.00;97468.44;18165117;32;20071;-64
2022/10/21 19:59:13;;;;;;;4.15;1.77;;;;;;;14.38;100.00;97474.28;18163535;32;20074;-63
2022/10/21 20:09:15;;;;;;;1.77;1.42;;;;;;;14.33;100.00;97501.56;18174845;32;20110;-63
2022/10/21 20:19:18;;;;;;;3.90;1.30;;;;;;;14.29;100.00;97500.56;18235799;32;20097;-63
2022/10/21 20:29:21;;;;;;;2.92;1.50;;;;;;;14.20;100.00;97512.09;18235361;32;20058;-63
2022/10/21 20:39:23;;;;;;;1.83;1.00;;;;;;;14.09;100.00;97494.34;18100264;32;20093;-62
2022/10/21 20:49:26;;;;;;;2.70;0.82;;;;;;;13.97;100.00;97532.88;18100021;32;20071;-62
2022/10/21 20:59:29;;;;;;;3.33;1.00;;;;;;;13.92;100.00;97591.94;18086465;32;20494;-62
2022/10/21 21:09:31;;;;;;;1.95;0.70;;;;;;;13.76;100.00;97564.97;18118230;32;20103;-62
2022/10/21 21:19:54;;;;;;;1.75;0.60;;;;;;;13.61;100.00;97570.59;18233140;32;20122;-62
2022/10/21 21:29:57;;;;;;;3.50;0.75;;;;;;;13.47;100.00;97584.94;18231952;32;20042;-62
2022/10/21 21:40:00;;;;;;;3.60;0.90;;;;;;;13.39;100.00;97612.72;18232254;32;20129;-62
2022/10/21 21:50:03;;;;;;;3.78;1.02;;;;;;;13.36;100.00;97626.88;18230648;32;20122;-61
2022/10/21 22:00:07;;;;;;;2.33;0.60;;;;;;;13.31;100.00;97586.19;18230860;32;20150;-61
2022/10/21 22:10:10;;;;;;;1.23;0.73;;;;;;;13.25;100.00;97622.63;18230988;32;20085;-61
2022/10/21 22:20:13;;;;;;;2.80;0.30;;;;;;;13.19;100.00;97647.09;18229106;32;20372;-62
2022/10/21 22:30:16;;;;;;;0.30;0.20;;;;;;;13.11;100.00;97620.59;18239060;32;20126;-62
2022/10/21 22:40:18;;;;;;;0.80;0.57;;;;;;;12.99;100.00;97621.00;18240168;32;20569;-61
2022/10/21 22:50:21;;;;;;;1.30;0.47;;;;;;;12.94;100.00;97593.09;18238491;32;20422;-62
2022/10/21 23:00:24;;;;;;;0.90;0.22;;;;;;;12.86;100.00;97581.75;18238230;32;20082;-62
2022/10/21 23:10:26;;;;;;;0.73;0.30;;;;;;;12.79;100.00;97561.50;18239332;32;20055;-62
2022/10/21 23:20:29;;;;;;;1.15;0.30;;;;;;;12.68;100.00;97568.94;18237765;32;20522;-62
2022/10/21 23:30:31;;;;;;;0.75;0.22;;;;;;;12.69;100.00;97560.50;18238026;32;20465;-62
2022/10/21 23:40:33;;;;;;;1.00;0.30;;;;;;;12.67;100.00;97559.16;18237223;32;20050;-62
2022/10/21 23:50:36;;;;;;;3.03;0.28;;;;;;;12.65;100.00;97564.88;18237115;32;20111;-62
